Time;durP1;ratioP1;P1;durP2;ratioP2;P2;SDS_P1;SDS_P2;PMS_P1;PMS_P2;Temp;Humidity;BMP_temperature;BMP_pressure;BME280_temperature;BME280_humidity;BME280_pressure;Samples;Min_cycle;Max_cycle;Signal;HPM_P1;HPM_P2
2022/08/22 00:00:36;;;;;;;0.17;0.17;;;13.70;99.90;;;;;;5053773;28;20048;-74
2022/08/22 00:03:02;;;;;;;0.22;0.22;;;13.70;99.90;;;;;;5074671;28;20091;-74
2022/08/22 00:05:43;;;;;;;0.00;0.00;;;13.70;99.90;;;;;;5074468;28;20080;-76
2022/08/22 00:08:24;;;;;;;0.00;0.00;;;13.70;99.90;;;;;;5074548;28;20044;-74
2022/08/22 00:11:08;;;;;;;0.38;0.30;;;13.70;99.90;;;;;;5077750;28;20060;-74
2022/08/22 00:13:34;;;;;;;0.00;0.00;;;13.60;99.90;;;;;;5094604;28;20437;-74
2022/08/22 00:16:27;;;;;;;0.00;0.00;;;13.60;99.90;;;;;;5090055;28;20040;-74
2022/08/22 00:19:15;;;;;;;0.20;0.20;;;13.60;99.90;;;;;;5073669;28;20040;-74
2022/08/22 00:22:20;;;;;;;0.00;0.00;;;13.60;99.90;;;;;;5073735;28;20045;-74
2022/08/22 00:25:10;;;;;;;0.65;0.55;;;13.60;99.90;;;;;;5041933;28;20052;-74
2022/08/22 00:27:52;;;;;;;0.17;0.00;;;13.60;99.90;;;;;;5091807;28;20152;-74
2022/08/22 00:30:18;;;;;;;0.60;0.60;;;13.60;99.90;;;;;;5093882;28;20044;-74
2022/08/22 00:32:55;;;;;;;0.95;0.73;;;13.60;99.90;;;;;;5090310;28;20048;-74
2022/08/22 00:35:46;;;;;;;0.22;0.22;;;13.70;99.90;;;;;;5073639;28;20044;-74
2022/08/22 00:38:18;;;;;;;4.80;1.38;;;13.60;99.90;;;;;;5073578;28;20124;-74
2022/08/22 00:41:02;;;;;;;0.20;0.10;;;13.60;99.90;;;;;;5073656;28;20059;-74
2022/08/22 00:43:59;;;;;;;0.30;0.17;;;13.50;99.90;;;;;;5073378;28;20056;-74
2022/08/22 00:46:35;;;;;;;;;;;13.50;99.90;;;;;;5073913;28;20487;-74
2022/08/22 00:49:22;;;;;;;2.55;1.10;;;13.40;99.90;;;;;;5073457;28;19920;-74
2022/08/22 00:52:12;;;;;;;0.28;0.28;;;13.40;99.90;;;;;;5073184;28;20060;-74
2022/08/22 00:54:56;;;;;;;0.00;0.00;;;13.50;99.90;;;;;;5073404;28;20458;-74
2022/08/22 00:57:28;;;;;;;0.00;0.00;;;13.50;99.90;;;;;;5073616;28;20052;-74
2022/08/22 01:00:11;;;;;;;0.32;0.10;;;13.40;99.90;;;;;;5073296;28;20122;-74
2022/08/22 01:02:48;;;;;;;0.00;0.00;;;13.40;99.90;;;;;;5071910;28;20498;-74
2022/08/22 01:05:43;;;;;;;0.60;0.38;;;13.40;99.90;;;;;;5073133;28;20102;-74
2022/08/22 01:08:36;;;;;;;0.00;0.00;;;13.40;99.90;;;;;;5074233;28;20478;-74
2022/08/22 01:12:01;;;;;;;0.00;0.00;;;13.40;99.90;;;;;;5076143;28;20446;-74
2022/08/22 01:14:41;;;;;;;1.65;0.32;;;13.40;99.90;;;;;;5024524;28;20041;-74
2022/08/22 01:17:07;;;;;;;0.28;0.22;;;13.40;99.90;;;;;;5031872;28;20050;-74
2022/08/22 01:19:57;;;;;;;0.22;0.15;;;13.40;99.90;;;;;;5064760;28;20115;-74
2022/08/22 01:22:40;;;;;;;0.47;0.43;;;13.40;99.90;;;;;;5078145;28;20080;-74
2022/08/22 01:25:50;;;;;;;0.00;0.00;;;13.40;99.90;;;;;;5077080;28;20566;-74
2022/08/22 01:28:44;;;;;;;2.47;0.85;;;13.40;99.90;;;;;;5077391;28;20049;-74
2022/08/22 01:31:34;;;;;;;0.10;0.10;;;13.40;99.90;;;;;;5076915;28;20080;-74
2022/08/22 01:34:30;;;;;;;0.00;0.00;;;13.40;99.90;;;;;;5076977;28;20455;-74
2022/08/22 01:37:18;;;;;;;0.00;0.00;;;13.40;99.90;;;;;;5090443;28;20056;-74
2022/08/22 01:40:13;;;;;;;0.00;0.00;;;13.40;99.90;;;;;;5096821;28;20058;-73
2022/08/22 01:42:57;;;;;;;0.22;0.17;;;13.40;99.90;;;;;;5017915;28;20050;-74
2022/08/22 01:45:41;;;;;;;0.00;0.00;;;13.50;99.90;;;;;;5076407;28;20041;-75
2022/08/22 01:48:15;;;;;;;0.00;0.00;;;13.40;99.90;;;;;;5095723;28;20127;-74
2022/08/22 01:50:53;;;;;;;0.00;0.00;;;13.40;99.90;;;;;;5096983;28;20100;-74
2022/08/22 01:53:38;;;;;;;0.00;0.00;;;13.40;99.90;;;;;;5096988;28;20067;-74
2022/08/22 01:56:19;;;;;;;0.13;0.10;;;13.40;99.90;;;;;;5083126;28;20036;-74
2022/08/22 01:58:56;;;;;;;0.00;0.00;;;13.30;99.90;;;;;;5074002;28;20433;-72
2022/08/22 02:01:30;;;;;;;0.20;0.20;;;13.40;99.90;;;;;;5080488;28;20036;-74
2022/08/22 02:04:04;;;;;;;0.00;0.00;;;13.40;99.90;;;;;;5096697;28;20048;-74
2022/08/22 02:06:41;;;;;;;0.30;0.20;;;13.30;99.90;;;;;;5087116;28;20123;-74
2022/08/22 02:09:30;;;;;;;0.00;0.00;;;13.30;99.90;;;;;;5090331;28;20044;-74
2022/08/22 02:12:10;;;;;;;0.15;0.10;;;13.20;99.90;;;;;;5088034;28;20048;-74
2022/08/22 02:15:15;;;;;;;0.00;0.00;;;13.20;99.90;;;;;;5076217;28;20459;-74
2022/08/22 02:18:04;;;;;;;0.03;0.00;;;13.20;99.90;;;;;;5076259;28;20045;-74
2022/08/22 02:20:57;;;;;;;0.00;0.00;;;13.10;99.90;;;;;;5067753;28;20083;-74
2022/08/22 02:23:48;;;;;;;0.10;0.10;;;13.10;99.90;;;;;;5075315;28;20048;-74
2022/08/22 02:26:35;;;;;;;0.10;0.10;;;13.10;99.90;;;;;;5075668;28;20475;-74
2022/08/22 02:29:19;;;;;;;0.30;0.30;;;13.10;99.90;;;;;;5075718;28;20446;-76
2022/08/22 02:31:53;;;;;;;0.20;0.20;;;13.10;99.90;;;;;;5075071;28;20490;-73
2022/08/22 02:34:35;;;;;;;0.00;0.00;;;13.00;99.90;;;;;;5075075;28;20052;-73
2022/08/22 02:37:10;;;;;;;1.00;0.35;;;13.00;99.90;;;;;;5085823;28;20468;-74
2022/08/22 02:40:03;;;;;;;0.00;0.00;;;12.90;99.90;;;;;;5095213;28;20044;-74
2022/08/22 02:42:57;;;;;;;0.15;0.10;;;12.90;99.90;;;;;;5095557;28;20063;-74
2022/08/22 02:45:40;;;;;;;0.30;0.30;;;12.80;99.90;;;;;;5080599;28;20044;-74
2022/08/22 02:48:11;;;;;;;0.10;0.00;;;12.70;99.90;;;;;;5094652;28;20493;-74
2022/08/22 02:50:59;;;;;;;0.00;0.00;;;12.60;99.90;;;;;;5094907;28;20056;-74
2022/08/22 02:53:37;;;;;;;0.00;0.00;;;12.60;99.90;;;;;;5095098;28;20047;-74
2022/08/22 02:56:10;;;;;;;0.00;0.00;;;12.60;99.90;;;;;;5089609;28;20040;-74
2022/08/22 02:58:46;;;;;;;0.47;0.20;;;12.50;99.90;;;;;;5085121;28;20058;-74
2022/08/22 03:01:41;;;;;;;0.00;0.00;;;12.50;99.90;;;;;;5094838;28;20046;-74
2022/08/22 03:04:25;;;;;;;1.55;0.63;;;12.50;99.90;;;;;;5093380;28;20127;-74
2022/08/22 03:07:11;;;;;;;0.63;0.25;;;12.50;99.90;;;;;;5085351;28;20052;-74
2022/08/22 03:10:04;;;;;;;0.30;0.25;;;12.50;99.90;;;;;;5074378;28;20080;-74
2022/08/22 03:12:54;;;;;;;0.00;0.00;;;12.50;99.90;;;;;;5074333;28;20044;-74
2022/08/22 03:15:23;;;;;;;0.00;0.00;;;12.40;99.90;;;;;;5074225;28;20076;-74
2022/08/22 03:18:00;;;;;;;0.15;0.10;;;12.40;99.90;;;;;;5090325;28;20094;-74
2022/08/22 03:20:47;;;;;;;0.03;0.03;;;12.30;99.90;;;;;;5094581;28;20052;-74
2022/08/22 03:23:26;;;;;;;0.00;0.00;;;12.30;99.90;;;;;;5094169;28;20524;-75
2022/08/22 03:26:10;;;;;;;0.10;0.10;;;12.20;99.90;;;;;;5094199;28;20043;-75
2022/08/22 03:28:52;;;;;;;0.00;0.00;;;12.20;99.90;;;;;;5094180;28;20044;-74
2022/08/22 03:31:23;;;;;;;16.75;0.32;;;12.10;99.90;;;;;;5094181;28;20494;-74
2022/08/22 03:34:12;;;;;;;0.00;0.00;;;12.10;99.90;;;;;;5094596;28;20036;-74
2022/08/22 03:36:43;;;;;;;0.47;0.20;;;12.50;99.90;;;;;;5075025;28;20060;-73
2022/08/22 03:39:16;;;;;;;0.00;0.00;;;12.30;99.90;;;;;;5074661;28;20037;-74
2022/08/22 03:42:04;;;;;;;0.00;0.00;;;12.40;99.90;;;;;;5086179;28;20048;-74
2022/08/22 03:44:54;;;;;;;3.08;0.43;;;12.40;99.90;;;;;;5096269;28;20406;-74
2022/08/22 03:47:51;;;;;;;0.10;0.10;;;12.60;99.90;;;;;;5081440;28;20131;-73
2022/08/22 03:50:37;;;;;;;0.98;0.88;;;12.50;99.90;;;;;;5076064;28;20094;-74
2022/08/22 03:53:10;;;;;;;0.03;0.03;;;12.50;99.90;;;;;;5075948;28;20129;-74
2022/08/22 03:55:47;;;;;;;0.10;0.10;;;12.50;99.90;;;;;;5076159;28;20060;-74
2022/08/22 03:58:43;;;;;;;0.85;0.52;;;12.50;99.90;;;;;;5075510;28;20036;-74
2022/08/22 04:01:42;;;;;;;0.40;0.20;;;12.60;99.90;;;;;;5090899;28;20069;-74
2022/08/22 04:04:31;;;;;;;0.00;0.00;;;12.60;99.90;;;;;;5095908;28;20048;-74
2022/08/22 04:07:09;;;;;;;0.00;0.00;;;12.60;99.90;;;;;;5085396;28;20060;-73
2022/08/22 04:10:06;;;;;;;0.20;0.20;;;12.60;99.90;;;;;;5075164;28;20452;-75
2022/08/22 04:12:49;;;;;;;0.20;0.20;;;12.70;99.90;;;;;;5078250;28;20426;-74
2022/08/22 04:15:42;;;;;;;0.00;0.00;;;12.70;99.90;;;;;;5094329;28;20058;-74
2022/08/22 04:18:54;;;;;;;0.00;0.00;;;12.70;99.90;;;;;;5075342;28;20086;-74
2022/08/22 04:21:28;;;;;;;0.00;0.00;;;12.70;99.90;;;;;;5075161;28;20076;-74
2022/08/22 04:24:05;;;;;;;0.10;0.10;;;12.70;99.90;;;;;;5075317;28;20094;-74
2022/08/22 04:26:54;;;;;;;0.00;0.00;;;12.70;99.90;;;;;;5086252;28;20414;-74
2022/08/22 04:29:46;;;;;;;0.08;0.00;;;12.80;99.90;;;;;;5055808;28;20074;-74
2022/08/22 04:32:25;;;;;;;0.00;0.00;;;12.80;99.90;;;;;;5050851;28;20511;-74
2022/08/22 04:35:01;;;;;;;0.10;0.10;;;12.80;99.90;;;;;;5074215;28;20071;-74
2022/08/22 04:37:26;;;;;;;0.38;0.38;;;12.80;99.90;;;;;;5081091;28;20110;-73
2022/08/22 04:40:02;;;;;;;0.00;0.00;;;12.80;99.90;;;;;;5075139;28;20057;-74
2022/08/22 04:42:34;;;;;;;0.00;0.00;;;12.80;99.90;;;;;;5087864;28;20032;-74
2022/08/22 04:45:18;;;;;;;0.00;0.00;;;12.80;99.90;;;;;;5084574;28;20051;-74
2022/08/22 04:48:20;;;;;;;0.35;0.35;;;12.80;99.90;;;;;;5083266;28;20128;-74
2022/08/22 04:50:59;;;;;;;0.32;0.32;;;12.80;99.90;;;;;;5075334;28;20415;-74
2022/08/22 04:53:58;;;;;;;0.00;0.00;;;12.80;99.90;;;;;;5077742;28;20455;-74
2022/08/22 04:56:42;;;;;;;0.13;0.10;;;12.90;99.90;;;;;;5082890;28;20076;-74
2022/08/22 04:59:16;;;;;;;0.10;0.10;;;12.90;99.90;;;;;;5095045;28;20096;-74
2022/08/22 05:01:57;;;;;;;0.10;0.10;;;12.90;99.90;;;;;;5094878;28;20379;-74
2022/08/22 05:04:30;;;;;;;0.00;0.00;;;13.00;99.90;;;;;;5095276;28;20123;-74
2022/08/22 05:07:06;;;;;;;0.00;0.00;;;13.20;99.90;;;;;;5089284;28;20043;-74
2022/08/22 05:09:37;;;;;;;0.00;0.00;;;13.10;99.90;;;;;;5092243;28;20054;-75
2022/08/22 05:12:10;;;;;;;0.10;0.10;;;13.20;99.90;;;;;;5092188;28;20052;-75
2022/08/22 05:15:01;;;;;;;0.00;0.00;;;13.20;99.90;;;;;;5092457;28;20040;-74
2022/08/22 05:17:30;;;;;;;4.85;0.35;;;13.30;99.90;;;;;;5071167;28;20048;-74
2022/08/22 05:20:03;;;;;;;0.52;0.52;;;13.30;99.90;;;;;;5080285;28;20071;-75
2022/08/22 05:22:35;;;;;;;0.20;0.20;;;13.30;99.90;;;;;;5070651;28;20053;-75
2022/08/22 05:25:25;;;;;;;1.27;0.55;;;13.40;99.90;;;;;;5079308;28;20456;-75
2022/08/22 05:28:06;;;;;;;0.20;0.10;;;13.40;99.90;;;;;;5092302;28;20044;-74
2022/08/22 05:30:34;;;;;;;0.25;0.13;;;13.40;99.90;;;;;;5091953;28;20043;-75
2022/08/22 05:33:24;;;;;;;0.20;0.20;;;13.50;99.90;;;;;;5087576;28;20102;-74
2022/08/22 05:35:56;;;;;;;1.05;0.30;;;13.60;99.90;;;;;;5062802;28;20056;-74
2022/08/22 05:38:31;;;;;;;0.50;0.47;;;13.70;99.90;;;;;;5072266;28;20050;-74
2022/08/22 05:41:08;;;;;;;0.13;0.05;;;13.90;99.90;;;;;;5071082;28;20132;-75
2022/08/22 05:43:38;;;;;;;0.50;0.40;;;14.00;99.90;;;;;;5072102;28;20546;-74
2022/08/22 05:46:07;;;;;;;0.13;0.13;;;14.10;99.90;;;;;;5072445;28;20045;-75
2022/08/22 05:48:48;;;;;;;0.03;0.03;;;14.20;99.90;;;;;;5072305;28;20128;-75
2022/08/22 05:51:24;;;;;;;1.10;0.32;;;14.30;99.90;;;;;;5072151;28;20084;-74
2022/08/22 05:54:02;;;;;;;18.67;0.57;;;14.40;99.90;;;;;;5072129;28;20048;-74
2022/08/22 05:56:45;;;;;;;0.20;0.20;;;14.50;99.90;;;;;;5072495;28;20063;-75
2022/08/22 05:59:26;;;;;;;0.10;0.10;;;14.60;99.90;;;;;;5075562;28;20543;-75
2022/08/22 06:02:16;;;;;;;1.35;0.52;;;14.70;99.90;;;;;;5075648;28;20039;-74
2022/08/22 06:04:41;;;;;;;0.43;0.30;;;14.80;99.90;;;;;;5075776;28;20099;-75
2022/08/22 06:07:15;;;;;;;1.13;0.95;;;14.90;99.90;;;;;;5074347;28;20048;-75
2022/08/22 06:09:47;;;;;;;0.43;0.20;;;15.00;99.90;;;;;;5075633;28;20041;-75
2022/08/22 06:12:18;;;;;;;0.57;0.57;;;15.10;99.90;;;;;;5075553;28;20605;-75
2022/08/22 06:15:12;;;;;;;0.25;0.20;;;15.20;99.90;;;;;;5075427;28;20048;-75
2022/08/22 06:17:54;;;;;;;0.85;0.52;;;15.40;99.90;;;;;;5075581;28;20044;-75
2022/08/22 06:20:26;;;;;;;0.00;0.00;;;15.60;99.90;;;;;;5075547;28;20044;-74
2022/08/22 06:22:57;;;;;;;0.57;0.57;;;15.70;99.90;;;;;;5075399;28;20044;-75
2022/08/22 06:25:28;;;;;;;1.70;0.98;;;15.90;99.90;;;;;;5085611;28;20496;-75
2022/08/22 06:27:56;;;;;;;0.10;0.10;;;16.00;99.90;;;;;;5075619;28;20040;-75
2022/08/22 06:30:24;;;;;;;0.17;0.15;;;16.10;99.90;;;;;;5075289;28;20045;-74
2022/08/22 06:32:53;;;;;;;0.43;0.40;;;16.30;99.90;;;;;;5075304;28;20535;-74
2022/08/22 06:39:11;;;;;;;0.30;0.28;;;16.60;99.90;;;;;;5084314;28;20045;-74
2022/08/22 06:41:44;;;;;;;0.28;0.28;;;16.70;99.90;;;;;;5081302;28;20621;-74
2022/08/22 06:44:14;;;;;;;0.20;0.20;;;16.90;99.90;;;;;;5086600;28;20121;-74
2022/08/22 06:46:42;;;;;;;1.95;1.30;;;17.00;99.90;;;;;;5091811;28;20562;-74
2022/08/22 06:49:09;;;;;;;5.47;0.32;;;17.20;99.90;;;;;;5092174;28;20445;-74
2022/08/22 06:51:37;;;;;;;0.32;0.28;;;17.20;99.90;;;;;;5091769;28;20239;-75
2022/08/22 06:54:06;;;;;;;0.30;0.20;;;17.50;99.90;;;;;;5091683;28;20044;-74
2022/08/22 06:56:39;;;;;;;0.20;0.20;;;17.60;99.90;;;;;;5091536;28;20133;-75
2022/08/22 06:59:14;;;;;;;4.00;0.60;;;17.80;99.90;;;;;;5085600;28;20462;-74
2022/08/22 07:01:55;;;;;;;0.77;0.77;;;17.80;99.90;;;;;;5080427;28;20414;-74
2022/08/22 07:04:25;;;;;;;0.20;0.20;;;17.90;99.90;;;;;;5082359;28;20039;-74
2022/08/22 07:06:53;;;;;;;0.35;0.30;;;18.00;99.90;;;;;;5083268;28;20047;-74
2022/08/22 07:09:24;;;;;;;2.67;1.27;;;18.00;99.90;;;;;;5091074;28;20059;-74
2022/08/22 07:11:51;;;;;;;2.00;0.47;;;18.10;99.90;;;;;;5092799;28;20047;-72
2022/08/22 07:14:26;;;;;;;0.60;0.50;;;18.20;99.90;;;;;;5094664;28;20094;-73
2022/08/22 07:16:57;;;;;;;0.10;0.10;;;18.30;99.90;;;;;;5093253;28;20445;-73
2022/08/22 07:19:25;;;;;;;0.70;0.55;;;18.50;99.90;;;;;;5093511;28;20344;-73
2022/08/22 07:21:51;;;;;;;8.43;0.82;;;18.70;99.90;;;;;;5094392;28;20044;-73
2022/08/22 07:24:22;;;;;;;0.00;0.00;;;18.60;99.90;;;;;;5094441;28;20044;-73
2022/08/22 07:27:12;;;;;;;0.77;0.45;;;18.70;99.90;;;;;;5094417;28;20054;-73
2022/08/22 07:29:47;;;;;;;0.17;0.17;;;18.90;99.90;;;;;;5092909;28;20502;-73
2022/08/22 07:32:45;;;;;;;0.90;0.82;;;19.10;99.90;;;;;;5093645;28;20044;-73
2022/08/22 07:35:27;;;;;;;0.57;0.43;;;19.20;99.90;;;;;;5062462;28;20056;-73
2022/08/22 07:37:59;;;;;;;0.60;0.60;;;19.30;99.90;;;;;;5093895;28;20059;-73
2022/08/22 07:40:55;;;;;;;1.02;0.70;;;19.30;99.90;;;;;;5093962;28;20421;-73
2022/08/22 07:43:50;;;;;;;1.83;0.95;;;19.40;99.90;;;;;;5094255;28;20093;-73
2022/08/22 07:46:35;;;;;;;0.20;0.20;;;19.50;99.90;;;;;;5093805;28;20036;-73
2022/08/22 07:49:20;;;;;;;1.58;1.02;;;19.60;99.90;;;;;;5094001;28;20039;-73
2022/08/22 07:51:49;;;;;;;0.28;0.28;;;19.80;99.90;;;;;;5093819;28;20529;-73
2022/08/22 07:54:23;;;;;;;0.80;0.73;;;20.00;99.90;;;;;;5093908;28;20036;-72
2022/08/22 07:57:09;;;;;;;0.28;0.28;;;20.00;99.90;;;;;;5093717;28;20052;-73
2022/08/22 07:59:41;;;;;;;0.10;0.10;;;20.20;99.90;;;;;;5093710;28;20127;-73
2022/08/22 08:02:11;;;;;;;1.02;0.40;;;20.20;99.90;;;;;;5093595;28;20072;-72
2022/08/22 08:04:39;;;;;;;1.02;0.95;;;20.30;99.90;;;;;;5093537;28;20055;-73
2022/08/22 08:07:07;;;;;;;0.98;0.70;;;20.50;99.90;;;;;;5092069;28;20051;-74
2022/08/22 08:09:37;;;;;;;2.08;1.08;;;21.00;99.90;;;;;;5092320;28;20463;-73
2022/08/22 08:12:05;;;;;;;5.72;0.85;;;21.20;99.90;;;;;;5093620;28;20032;-73
2022/08/22 08:14:34;;;;;;;0.47;0.40;;;21.90;99.90;;;;;;5093476;28;20036;-73
2022/08/22 08:17:09;;;;;;;0.43;0.38;;;22.50;99.90;;;;;;5093340;28;20044;-73
2022/08/22 08:19:38;;;;;;;6.13;0.77;;;22.90;99.90;;;;;;5092483;28;20059;-73
2022/08/22 08:22:04;;;;;;;0.75;0.38;;;23.10;99.90;;;;;;5092352;28;20040;-73
2022/08/22 08:24:35;;;;;;;0.45;0.25;;;22.90;99.90;;;;;;5093093;28;20486;-73
2022/08/22 08:29:55;;;;;;;6.72;1.75;;;21.60;99.90;;;;;;5093177;28;20105;-73
2022/08/22 08:32:23;;;;;;;2.22;1.15;;;21.50;99.90;;;;;;5093063;28;20044;-73
2022/08/22 08:34:51;;;;;;;2.58;0.90;;;21.60;99.90;;;;;;5093289;28;20040;-73
2022/08/22 08:37:34;;;;;;;0.95;0.57;;;21.60;99.90;;;;;;5093005;28;20411;-73
2022/08/22 08:40:07;;;;;;;0.30;0.30;;;21.90;99.90;;;;;;5092894;28;20075;-73
2022/08/22 08:45:42;;;;;;;0.17;0.17;;;22.00;99.90;;;;;;5092709;28;20604;-73
2022/08/22 08:48:26;;;;;;;1.33;0.60;;;21.60;99.90;;;;;;5093358;28;20123;-73
2022/08/22 08:51:27;;;;;;;2.38;1.33;;;21.70;99.90;;;;;;5092766;28;20044;-73
2022/08/22 08:54:14;;;;;;;2.30;0.65;;;21.90;99.90;;;;;;5092969;28;20048;-73
2022/08/22 08:57:13;;;;;;;1.63;0.45;;;22.00;99.90;;;;;;5092939;28;20123;-73
2022/08/22 09:00:00;;;;;;;0.20;0.10;;;22.50;99.90;;;;;;5092936;28;20405;-73
2022/08/22 09:02:52;;;;;;;0.47;0.47;;;22.90;99.90;;;;;;5092893;28;20085;-73
2022/08/22 09:05:27;;;;;;;2.30;0.75;;;23.80;99.90;;;;;;5092766;28;20044;-74
2022/08/22 09:08:17;;;;;;;0.03;0.03;;;24.30;99.90;;;;;;5092833;28;20052;-73
2022/08/22 09:11:10;;;;;;;3.40;1.17;;;24.90;99.90;;;;;;5093234;28;20547;-74
2022/08/22 09:13:49;;;;;;;0.00;0.00;;;24.90;99.90;;;;;;5092199;28;20395;-73
2022/08/22 09:16:33;;;;;;;2.42;0.38;;;24.90;97.10;;;;;;5092653;28;20043;-74
2022/08/22 09:19:57;;;;;;;0.68;0.52;;;24.20;99.90;;;;;;5091291;28;20054;-73
2022/08/22 09:23:17;;;;;;;11.18;1.30;;;25.00;99.90;;;;;;5010320;28;20053;-74
2022/08/22 09:25:54;;;;;;;2.05;0.90;;;25.00;90.00;;;;;;5050071;28;20056;-73
2022/08/22 09:28:39;;;;;;;3.75;0.55;;;24.40;96.00;;;;;;5092412;28;20047;-73
2022/08/22 09:31:30;;;;;;;5.05;0.20;;;24.10;99.90;;;;;;5093655;28;20040;-73
2022/08/22 09:34:09;;;;;;;0.55;0.47;;;24.70;99.90;;;;;;5096350;28;20113;-73
2022/08/22 09:36:51;;;;;;;0.73;0.47;;;25.20;96.80;;;;;;5096316;28;20048;-73
2022/08/22 09:39:57;;;;;;;0.22;0.20;;;24.00;97.30;;;;;;5096227;28;20044;-73
2022/08/22 09:42:31;;;;;;;0.90;0.60;;;23.00;99.90;;;;;;5096562;28;20044;-73
2022/08/22 09:44:57;;;;;;;0.70;0.40;;;22.80;99.90;;;;;;5096290;28;20048;-73
2022/08/22 09:47:38;;;;;;;0.40;0.38;;;23.00;99.90;;;;;;5096034;28;20638;-73
2022/08/22 09:50:31;;;;;;;0.30;0.30;;;23.20;99.90;;;;;;5095172;28;20047;-73
2022/08/22 09:53:41;;;;;;;0.00;0.00;;;23.10;99.90;;;;;;5096158;28;20055;-73
2022/08/22 09:56:12;;;;;;;0.22;0.20;;;23.40;99.90;;;;;;5096402;28;20040;-74
2022/08/22 09:59:00;;;;;;;0.25;0.20;;;23.60;99.90;;;;;;5095904;28;20510;-73
2022/08/22 10:01:47;;;;;;;2.08;0.88;;;23.70;99.90;;;;;;5095942;28;20579;-73
2022/08/22 10:04:13;;;;;;;0.00;0.00;;;23.50;99.90;;;;;;5096038;28;20402;-73
2022/08/22 10:07:08;;;;;;;0.20;0.20;;;23.40;99.90;;;;;;5095958;28;20044;-73
2022/08/22 10:09:56;;;;;;;4.28;0.35;;;23.10;99.90;;;;;;5061501;28;20056;-72
2022/08/22 10:12:30;;;;;;;0.82;0.82;;;22.80;99.90;;;;;;5095818;28;20094;-73
2022/08/22 10:15:11;;;;;;;2.50;0.98;;;22.90;99.90;;;;;;5095877;28;20055;-73
2022/08/22 10:17:50;;;;;;;3.75;0.80;;;23.10;99.90;;;;;;5096100;28;20503;-72
2022/08/22 10:20:24;;;;;;;0.52;0.40;;;23.20;99.90;;;;;;5095888;28;20052;-73
2022/08/22 10:23:18;;;;;;;0.33;0.30;;;23.10;99.90;;;;;;5095861;28;20522;-73
2022/08/22 10:25:46;;;;;;;0.00;0.00;;;23.60;99.90;;;;;;5095666;28;20294;-73
2022/08/22 10:28:18;;;;;;;0.60;0.52;;;23.50;99.90;;;;;;5095657;28;20050;-74
2022/08/22 10:31:06;;;;;;;3.03;0.95;;;23.60;99.90;;;;;;5095185;28;20087;-73
2022/08/22 10:33:44;;;;;;;1.25;0.50;;;24.00;99.90;;;;;;5095467;28;20055;-73
2022/08/22 10:36:20;;;;;;;0.75;0.40;;;24.20;99.90;;;;;;5095204;28;20043;-73
2022/08/22 10:38:50;;;;;;;0.05;0.05;;;24.10;99.90;;;;;;5095120;28;20477;-73
2022/08/22 10:41:35;;;;;;;1.85;0.80;;;24.80;99.90;;;;;;5095198;28;20048;-73
2022/08/22 10:44:33;;;;;;;1.30;0.60;;;24.60;92.90;;;;;;5093475;28;20062;-72
2022/08/22 10:47:10;;;;;;;0.38;0.35;;;24.90;89.30;;;;;;5095252;28;20123;-74
2022/08/22 10:50:06;;;;;;;0.43;0.43;;;24.50;91.40;;;;;;5095014;28;20036;-74
2022/08/22 10:52:41;;;;;;;0.08;0.08;;;24.60;87.80;;;;;;5095698;28;20044;-73
2022/08/22 10:55:12;;;;;;;0.15;0.15;;;24.30;81.10;;;;;;5095341;28;20054;-74
2022/08/22 10:58:06;;;;;;;5.25;1.00;;;24.10;87.90;;;;;;5094974;28;20040;-73
2022/08/22 11:01:05;;;;;;;0.20;0.15;;;24.40;91.20;;;;;;5093379;28;20054;-72
2022/08/22 11:04:00;;;;;;;1.80;1.05;;;24.40;89.10;;;;;;5050747;28;20123;-73
2022/08/22 11:06:39;;;;;;;12.60;0.90;;;24.40;90.10;;;;;;5094603;28;20044;-73
2022/08/22 11:09:26;;;;;;;3.75;0.55;;;24.70;88.60;;;;;;5094698;28;20082;-72
2022/08/22 11:11:59;;;;;;;1.48;0.95;;;25.10;86.60;;;;;;5094882;28;20407;-73
2022/08/22 11:14:53;;;;;;;2.33;1.30;;;24.30;85.30;;;;;;5094459;28;20063;-72
2022/08/22 11:17:52;;;;;;;1.50;0.63;;;24.60;86.70;;;;;;5094564;28;20547;-72
2022/08/22 11:20:33;;;;;;;3.83;0.52;;;24.90;83.10;;;;;;5094640;28;20099;-73
2022/08/22 11:23:26;;;;;;;1.08;0.77;;;25.10;85.20;;;;;;5094295;28;20104;-73
2022/08/22 11:26:08;;;;;;;0.10;0.10;;;25.30;87.00;;;;;;5094391;28;20409;-73
2022/08/22 11:29:02;;;;;;;0.47;0.20;;;25.40;86.50;;;;;;5094619;28;20406;-73
2022/08/22 11:31:51;;;;;;;0.15;0.15;;;24.90;60.30;;;;;;5094013;28;20466;-73
2022/08/22 11:34:26;;;;;;;1.17;0.45;;;25.10;60.60;;;;;;5094621;28;20055;-73
2022/08/22 11:37:24;;;;;;;0.30;0.30;;;24.90;66.00;;;;;;5089153;28;20056;-73
2022/08/22 11:40:35;;;;;;;0.10;0.10;;;25.50;66.10;;;;;;5083918;28;20074;-73
2022/08/22 11:43:18;;;;;;;0.57;0.52;;;25.90;50.40;;;;;;5089434;28;20135;-72
2022/08/22 11:45:49;;;;;;;0.10;0.10;;;26.10;62.80;;;;;;5082320;28;20054;-72
2022/08/22 11:48:25;;;;;;;0.98;0.70;;;27.20;34.00;;;;;;5085893;28;20040;-73
2022/08/22 11:51:05;;;;;;;0.10;0.10;;;26.60;27.60;;;;;;5085636;28;20509;-73
2022/08/22 11:53:39;;;;;;;0.20;0.20;;;26.90;36.30;;;;;;5091060;28;20058;-73
2022/08/22 11:56:12;;;;;;;1.65;1.42;;;26.70;30.70;;;;;;5090652;28;20047;-73
2022/08/22 11:58:48;;;;;;;0.55;0.38;;;26.00;43.10;;;;;;5091997;28;20046;-73
2022/08/22 12:01:55;;;;;;;0.00;0.00;;;26.90;46.90;;;;;;5092659;28;20048;-73
2022/08/22 12:04:37;;;;;;;0.20;0.17;;;27.40;21.60;;;;;;5006617;28;20034;-73
2022/08/22 12:07:22;;;;;;;0.65;0.35;;;27.00;26.20;;;;;;5064758;28;20061;-73
2022/08/22 12:10:02;;;;;;;7.88;0.47;;;26.90;20.10;;;;;;5075483;28;20111;-73
2022/08/22 12:12:54;;;;;;;1.00;0.63;;;26.80;21.50;;;;;;5090570;28;20079;-73
2022/08/22 12:15:27;;;;;;;0.70;0.28;;;27.00;19.20;;;;;;5090359;28;20059;-72
2022/08/22 12:18:24;;;;;;;0.52;0.40;;;27.30;16.40;;;;;;5091033;28;20040;-73
2022/08/22 12:20:55;;;;;;;0.10;0.08;;;26.40;14.20;;;;;;5090635;28;20429;-73
2022/08/22 12:23:23;;;;;;;0.10;0.05;;;26.60;19.50;;;;;;5090163;28;20097;-73
2022/08/22 12:26:06;;;;;;;0.30;0.20;;;26.90;16.40;;;;;;5090790;28;20093;-74
2022/08/22 12:28:51;;;;;;;0.52;0.35;;;27.20;11.30;;;;;;5090411;28;20477;-74
2022/08/22 12:31:28;;;;;;;0.15;0.15;;;26.60;11.00;;;;;;5090762;28;20048;-74
2022/08/22 12:34:08;;;;;;;1.55;0.73;;;25.70;18.50;;;;;;5090275;28;20059;-74
2022/08/22 12:36:56;;;;;;;0.22;0.22;;;26.20;21.00;;;;;;5090440;28;20055;-74
2022/08/22 12:40:08;;;;;;;0.43;0.32;;;27.50;23.00;;;;;;5090410;28;20048;-74
2022/08/22 12:42:53;;;;;;;0.13;0.13;;;26.70;13.70;;;;;;5090319;28;20482;-74
2022/08/22 12:45:32;;;;;;;0.28;0.20;;;27.90;14.00;;;;;;5090167;28;20048;-74
2022/08/22 12:48:22;;;;;;;0.00;0.00;;;28.20;8.90;;;;;;5089791;28;20099;-74
2022/08/22 12:51:02;;;;;;;2.03;0.38;;;28.60;12.60;;;;;;5085556;28;20052;-74
2022/08/22 12:53:52;;;;;;;4.68;0.93;;;29.30;10.60;;;;;;5071543;28;20044;-74
2022/08/22 12:56:26;;;;;;;3.30;0.73;;;30.10;7.90;;;;;;5073094;28;20041;-75
2022/08/22 12:59:05;;;;;;;0.10;0.10;;;28.80;1.00;;;;;;5071956;28;20056;-74
2022/08/22 13:01:38;;;;;;;1.02;0.65;;;29.20;7.40;;;;;;5072693;28;20093;-74
2022/08/22 13:04:12;;;;;;;0.57;0.50;;;29.00;5.00;;;;;;5072606;28;20072;-74
2022/08/22 13:06:41;;;;;;;0.47;0.30;;;28.30;5.40;;;;;;5073614;28;20119;-74
2022/08/22 13:09:17;;;;;;;1.88;0.68;;;28.50;8.80;;;;;;5076494;28;20052;-74
2022/08/22 13:11:45;;;;;;;0.32;0.20;;;29.00;7.10;;;;;;5076787;28;20510;-74
2022/08/22 13:14:17;;;;;;;4.38;0.85;;;29.10;4.40;;;;;;5076638;28;20076;-74
2022/08/22 13:16:48;;;;;;;1.85;0.45;;;29.40;1.70;;;;;;5076906;28;20048;-75
2022/08/22 13:19:21;;;;;;;0.20;0.10;;;28.00;6.00;;;;;;5076441;28;20032;-74
2022/08/22 13:22:18;;;;;;;0.20;0.13;;;28.90;12.80;;;;;;5076335;28;20052;-74
2022/08/22 13:25:00;;;;;;;2.65;0.82;;;29.80;7.60;;;;;;5067983;28;20068;-74
2022/08/22 13:27:45;;;;;;;0.32;0.28;;;31.10;4.70;;;;;;5076659;28;20037;-75
2022/08/22 13:30:20;;;;;;;1.65;0.80;;;30.20;1.00;;;;;;5076313;28;20044;-74
2022/08/22 13:32:52;;;;;;;0.20;0.20;;;30.70;1.00;;;;;;5076472;28;20119;-73
2022/08/22 13:35:34;;;;;;;0.30;0.13;;;29.90;1.00;;;;;;5076624;28;20102;-74
2022/08/22 13:38:19;;;;;;;0.08;0.05;;;30.40;1.60;;;;;;5076055;28;20421;-74
2022/08/22 13:40:47;;;;;;;1.42;0.55;;;29.60;2.70;;;;;;5076204;28;20044;-74
2022/08/22 13:43:20;;;;;;;1.65;0.57;;;29.20;5.30;;;;;;5076208;28;20040;-74
2022/08/22 13:46:07;;;;;;;0.45;0.35;;;27.80;7.90;;;;;;5076089;28;20048;-74
2022/08/22 13:48:49;;;;;;;0.32;0.32;;;28.10;15.50;;;;;;5074658;28;20047;-75
2022/08/22 13:51:33;;;;;;;0.10;0.08;;;29.70;5.00;;;;;;5075811;28;20564;-74
2022/08/22 13:54:21;;;;;;;0.13;0.13;;;30.50;1.70;;;;;;5076004;28;20139;-74
2022/08/22 13:57:09;;;;;;;0.00;0.00;;;30.80;1.00;;;;;;5075846;28;20041;-74
2022/08/22 13:59:53;;;;;;;3.25;0.47;;;31.20;1.00;;;;;;5075762;28;20102;-75
2022/08/22 14:02:56;;;;;;;0.80;0.35;;;31.10;1.00;;;;;;5075726;28;20081;-74
2022/08/22 14:05:30;;;;;;;0.70;0.50;;;29.40;1.00;;;;;;5075718;28;20047;-74
2022/08/22 14:08:01;;;;;;;0.45;0.38;;;27.80;5.10;;;;;;5075479;28;20041;-74
2022/08/22 14:10:31;;;;;;;1.98;0.85;;;27.00;17.80;;;;;;5075628;28;20052;-74